Time;durP1;ratioP1;P1;durP2;ratioP2;P2;SDS_P1;SDS_P2;PMS_P1;PMS_P2;Temp;Humidity;BMP_temperature;BMP_pressure;BME280_temperature;BME280_humidity;BME280_pressure;Samples;Min_cycle;Max_cycle;Signal;HPM_P1;HPM_P2
2021/11/28 00:00:42;;;;;;;415.37;394.00;;;4.40;99.90;;;;;;4376491;32;20145;-62
2021/11/28 00:03:10;;;;;;;400.50;380.23;;;4.40;99.90;;;;;;4377757;32;20171;-61
2021/11/28 00:05:37;;;;;;;410.37;389.53;;;4.40;99.90;;;;;;4376665;32;20560;-62
2021/11/28 00:08:14;;;;;;;409.90;388.90;;;4.40;99.90;;;;;;4378290;32;20501;-61
2021/11/28 00:10:50;;;;;;;404.80;383.87;;;4.50;99.90;;;;;;4376402;32;20187;-62
2021/11/28 00:16:05;;;;;;;401.57;381.07;;;4.40;99.90;;;;;;4331363;33;20165;-61
2021/11/28 00:18:32;;;;;;;409.67;388.37;;;4.50;99.90;;;;;;4329004;33;20211;-62
2021/11/28 00:20:59;;;;;;;402.37;381.50;;;4.50;99.90;;;;;;4329823;33;20192;-62
2021/11/28 00:23:26;;;;;;;418.00;396.93;;;4.50;99.90;;;;;;4331331;33;20177;-62
2021/11/28 00:25:55;;;;;;;423.63;401.90;;;4.40;99.90;;;;;;4329720;33;20242;-62
2021/11/28 00:28:22;;;;;;;402.90;382.10;;;4.50;99.90;;;;;;4329607;33;20212;-61
2021/11/28 00:30:49;;;;;;;407.63;386.43;;;4.50;99.90;;;;;;4330527;33;20200;-62
2021/11/28 00:33:16;;;;;;;423.67;401.60;;;4.40;99.90;;;;;;4330357;33;20217;-63
2021/11/28 00:35:43;;;;;;;404.27;383.57;;;4.40;99.90;;;;;;4331104;33;20221;-62
2021/11/28 00:38:10;;;;;;;400.00;379.17;;;4.40;99.90;;;;;;4331167;33;20200;-63
2021/11/28 00:40:37;;;;;;;406.30;384.90;;;4.50;99.90;;;;;;4329505;33;20185;-63
2021/11/28 00:43:05;;;;;;;425.37;403.33;;;4.40;99.90;;;;;;4330113;33;20590;-63
2021/11/28 00:45:32;;;;;;;417.93;396.30;;;4.50;99.90;;;;;;4329036;33;20181;-63
2021/11/28 00:48:00;;;;;;;411.47;389.73;;;4.50;99.90;;;;;;4328831;33;20603;-63
2021/11/28 00:50:37;;;;;;;411.50;390.07;;;4.40;99.90;;;;;;4330794;33;20153;-62
2021/11/28 00:53:05;;;;;;;405.00;383.60;;;4.50;99.90;;;;;;4347068;32;20157;-63
2021/11/28 00:55:32;;;;;;;404.47;383.73;;;4.30;99.90;;;;;;4377113;32;20152;-63
2021/11/28 00:57:59;;;;;;;400.10;379.07;;;4.30;99.90;;;;;;4375932;32;20171;-63
2021/11/28 01:00:27;;;;;;;410.73;389.13;;;4.30;99.90;;;;;;4367617;32;20180;-63
2021/11/28 01:02:54;;;;;;;410.73;389.33;;;4.30;99.90;;;;;;4376622;32;20612;-63
2021/11/28 01:05:21;;;;;;;410.23;388.50;;;4.30;99.90;;;;;;4375201;32;20223;-63
2021/11/28 01:07:48;;;;;;;413.50;391.33;;;4.30;99.90;;;;;;4377454;32;20173;-63
2021/11/28 01:10:15;;;;;;;409.37;387.30;;;4.30;99.90;;;;;;4375563;32;20164;-62
2021/11/28 01:12:42;;;;;;;408.23;386.87;;;4.30;99.90;;;;;;4369298;32;20180;-63
2021/11/28 01:15:12;;;;;;;404.30;382.50;;;4.40;99.90;;;;;;4375637;32;20176;-63
2021/11/28 01:17:40;;;;;;;414.73;392.70;;;4.30;99.90;;;;;;4375027;32;20191;-62
2021/11/28 01:20:09;;;;;;;421.00;398.20;;;4.40;99.90;;;;;;4372593;32;20182;-63
2021/11/28 01:22:36;;;;;;;409.43;386.87;;;4.40;99.90;;;;;;4374459;32;20188;-63
2021/11/28 01:25:04;;;;;;;406.97;385.23;;;4.30;99.90;;;;;;4375097;32;20219;-63
2021/11/28 01:27:33;;;;;;;407.60;386.07;;;4.30;99.90;;;;;;4376098;32;20588;-63
2021/11/28 01:30:00;;;;;;;416.57;394.33;;;4.30;99.90;;;;;;4375680;32;20549;-62
2021/11/28 01:32:27;;;;;;;408.50;386.53;;;4.40;99.90;;;;;;4369190;32;20508;-62
2021/11/28 01:34:55;;;;;;;413.83;390.87;;;4.40;99.90;;;;;;4373837;32;20164;-62
2021/11/28 01:37:22;;;;;;;413.37;391.10;;;4.30;99.90;;;;;;4377407;32;20545;-63
2021/11/28 01:39:49;;;;;;;407.00;384.60;;;4.30;99.90;;;;;;4376135;32;20216;-61
2021/11/28 01:42:15;;;;;;;419.53;396.47;;;4.30;99.90;;;;;;4359791;33;20175;-61
2021/11/28 01:44:42;;;;;;;433.57;409.47;;;4.30;99.90;;;;;;4367829;32;20216;-62
2021/11/28 01:47:09;;;;;;;403.60;381.10;;;4.20;99.90;;;;;;4373537;32;20168;-63
2021/11/28 01:49:36;;;;;;;417.17;393.93;;;4.10;99.90;;;;;;4376522;32;20493;-62
2021/11/28 01:52:05;;;;;;;424.27;400.97;;;4.20;99.90;;;;;;4374263;32;20208;-62
2021/11/28 01:54:31;;;;;;;411.93;388.83;;;4.30;99.90;;;;;;4376632;32;20221;-62
2021/11/28 01:56:58;;;;;;;407.47;385.07;;;4.30;99.90;;;;;;4375299;32;20167;-62
2021/11/28 01:59:25;;;;;;;413.70;390.77;;;4.30;99.90;;;;;;4375445;32;20165;-61
2021/11/28 02:01:52;;;;;;;403.30;380.43;;;4.30;99.90;;;;;;4374729;32;20207;-63
2021/11/28 02:04:19;;;;;;;428.00;404.60;;;4.20;99.90;;;;;;4376902;32;20204;-61
2021/11/28 02:06:48;;;;;;;417.33;394.47;;;4.20;99.90;;;;;;4374850;32;20160;-61
2021/11/28 02:09:17;;;;;;;407.33;385.30;;;4.30;99.90;;;;;;4375892;32;20214;-62
2021/11/28 02:11:45;;;;;;;424.23;400.70;;;4.30;99.90;;;;;;4376990;32;20213;-62
2021/11/28 02:14:12;;;;;;;439.60;415.83;;;4.30;99.90;;;;;;4375532;32;20208;-62
2021/11/28 02:16:39;;;;;;;432.47;408.63;;;4.30;99.90;;;;;;4373817;32;20620;-62
2021/11/28 02:19:06;;;;;;;435.27;411.97;;;4.40;99.90;;;;;;4376072;32;20229;-62
2021/11/28 02:21:34;;;;;;;418.93;395.87;;;4.40;99.90;;;;;;4379675;32;20208;-62
2021/11/28 02:24:01;;;;;;;409.67;387.03;;;4.40;99.90;;;;;;4379364;32;20182;-62
2021/11/28 02:26:30;;;;;;;412.53;390.00;;;4.30;99.90;;;;;;4379496;32;20156;-62
2021/11/28 02:28:57;;;;;;;399.60;377.80;;;4.40;99.90;;;;;;4376940;32;20168;-62
2021/11/28 02:31:24;;;;;;;413.37;390.57;;;4.40;99.90;;;;;;4376227;32;20227;-62
2021/11/28 02:33:51;;;;;;;413.03;389.90;;;4.30;99.90;;;;;;4377207;32;20486;-62
2021/11/28 02:36:18;;;;;;;413.80;390.47;;;4.30;99.90;;;;;;4377916;32;20204;-62
2021/11/28 02:38:46;;;;;;;405.57;383.93;;;4.40;99.90;;;;;;4373137;32;20177;-61
2021/11/28 02:41:14;;;;;;;393.53;371.37;;;4.40;99.90;;;;;;4377287;32;20173;-61
2021/11/28 02:43:41;;;;;;;422.83;399.43;;;4.40;99.90;;;;;;4377005;32;20227;-62
2021/11/28 02:46:09;;;;;;;416.33;392.87;;;4.40;99.90;;;;;;4377605;32;20168;-62
2021/11/28 02:48:36;;;;;;;418.27;394.43;;;4.30;99.90;;;;;;4377458;32;20158;-62
2021/11/28 02:51:04;;;;;;;426.80;402.13;;;4.30;99.90;;;;;;4377203;32;20164;-62
2021/11/28 02:53:31;;;;;;;405.90;383.33;;;4.20;99.90;;;;;;4369440;32;20157;-60
2021/11/28 02:56:02;;;;;;;417.57;394.83;;;4.20;99.90;;;;;;4378054;32;20529;-61
2021/11/28 02:58:30;;;;;;;402.13;379.43;;;4.30;99.90;;;;;;4376619;32;20156;-61
2021/11/28 03:01:00;;;;;;;411.83;387.93;;;4.20;99.90;;;;;;4376876;32;20168;-61
2021/11/28 03:03:27;;;;;;;434.27;408.57;;;4.20;99.90;;;;;;4377553;32;20215;-63
2021/11/28 03:05:54;;;;;;;426.23;401.10;;;4.10;99.90;;;;;;4378535;32;20583;-63
2021/11/28 03:08:22;;;;;;;447.27;421.20;;;4.00;99.90;;;;;;4377448;32;20176;-61
2021/11/28 03:10:51;;;;;;;433.90;408.50;;;4.10;99.90;;;;;;4379086;32;20473;-61
2021/11/28 03:13:21;;;;;;;439.97;414.33;;;4.10;99.90;;;;;;4376471;32;20641;-62
2021/11/28 03:15:49;;;;;;;437.53;412.07;;;4.20;99.90;;;;;;4378475;32;20172;-61
2021/11/28 03:18:19;;;;;;;430.77;405.23;;;4.20;99.90;;;;;;4376463;32;20243;-62
2021/11/28 03:20:47;;;;;;;431.70;405.80;;;4.30;99.90;;;;;;4363922;32;20584;-62
2021/11/28 03:23:15;;;;;;;431.60;406.13;;;4.10;99.90;;;;;;4373772;32;20206;-61
2021/11/28 03:25:43;;;;;;;450.57;423.83;;;4.20;99.90;;;;;;4376005;32;20179;-61
2021/11/28 03:28:13;;;;;;;454.03;427.40;;;4.10;99.90;;;;;;4377160;32;20156;-62
2021/11/28 03:30:42;;;;;;;446.63;420.77;;;4.10;99.90;;;;;;4376709;32;20537;-62
2021/11/28 03:33:10;;;;;;;452.33;425.47;;;4.00;99.90;;;;;;4376383;32;20166;-62
2021/11/28 03:35:37;;;;;;;455.93;428.77;;;4.10;99.90;;;;;;4378653;32;20550;-62
2021/11/28 03:38:05;;;;;;;461.90;434.80;;;4.00;99.90;;;;;;4377015;32;20211;-61
2021/11/28 03:40:32;;;;;;;465.50;438.53;;;4.00;99.90;;;;;;4377464;32;20184;-62
2021/11/28 03:42:59;;;;;;;464.07;436.83;;;4.00;99.90;;;;;;4378016;32;20591;-61
2021/11/28 03:45:26;;;;;;;448.37;421.60;;;4.00;99.90;;;;;;4377740;32;20210;-61
2021/11/28 03:47:54;;;;;;;469.33;441.50;;;3.90;99.90;;;;;;4385895;32;20188;-62
2021/11/28 03:50:21;;;;;;;461.73;435.10;;;3.80;99.90;;;;;;4393128;32;20609;-60
2021/11/28 03:52:48;;;;;;;438.10;412.70;;;3.80;99.90;;;;;;4382546;32;20461;-61
2021/11/28 03:55:16;;;;;;;431.07;406.70;;;3.70;99.90;;;;;;4375854;32;20216;-61
2021/11/28 03:57:43;;;;;;;426.33;401.83;;;3.70;99.90;;;;;;4376756;32;20203;-61
2021/11/28 04:00:13;;;;;;;430.17;406.07;;;3.60;99.90;;;;;;4388753;32;20246;-62
2021/11/28 04:02:40;;;;;;;428.63;404.43;;;3.70;99.90;;;;;;4373715;32;20217;-62
2021/11/28 04:05:10;;;;;;;434.40;408.97;;;3.70;99.90;;;;;;4375634;32;20157;-61
2021/11/28 04:07:37;;;;;;;419.33;395.60;;;3.60;99.90;;;;;;4378837;32;20223;-61
2021/11/28 04:10:05;;;;;;;432.67;407.97;;;3.50;99.90;;;;;;4376339;32;20190;-62
2021/11/28 04:12:32;;;;;;;432.27;407.67;;;3.50;99.90;;;;;;4378096;32;20163;-61
2021/11/28 04:14:59;;;;;;;438.80;412.97;;;3.60;99.90;;;;;;4381789;32;20175;-62
2021/11/28 04:17:26;;;;;;;426.27;401.33;;;3.70;99.90;;;;;;4387706;32;20155;-62
2021/11/28 04:19:54;;;;;;;428.23;402.47;;;3.70;99.90;;;;;;4382705;32;20637;-61
2021/11/28 04:22:22;;;;;;;435.33;409.07;;;3.80;99.90;;;;;;4375873;32;20217;-62
2021/11/28 04:24:50;;;;;;;436.37;410.93;;;3.80;99.90;;;;;;4377630;32;20176;-61
2021/11/28 04:27:17;;;;;;;442.07;416.63;;;3.90;99.90;;;;;;4386777;32;20219;-61
2021/11/28 04:29:44;;;;;;;442.87;416.93;;;4.00;99.90;;;;;;4386870;32;20179;-61
2021/11/28 04:32:11;;;;;;;450.03;423.63;;;4.00;99.90;;;;;;4382743;32;20179;-61
2021/11/28 04:34:38;;;;;;;435.73;410.20;;;4.00;99.90;;;;;;4385667;32;20239;-62
2021/11/28 04:37:05;;;;;;;455.37;429.57;;;4.00;99.90;;;;;;4376033;32;20214;-61
2021/11/28 04:39:34;;;;;;;437.53;412.53;;;4.10;99.90;;;;;;4377403;32;20184;-62
2021/11/28 04:42:01;;;;;;;427.30;402.40;;;4.10;99.90;;;;;;4387143;32;20179;-62
2021/11/28 04:44:28;;;;;;;440.80;415.93;;;4.10;99.90;;;;;;4391471;32;20176;-61
2021/11/28 04:46:54;;;;;;;429.27;404.43;;;4.10;99.90;;;;;;4373119;32;20204;-61
2021/11/28 04:49:21;;;;;;;414.53;390.63;;;4.10;99.90;;;;;;4374562;32;20156;-61
2021/11/28 04:51:48;;;;;;;437.27;412.00;;;4.10;99.90;;;;;;4370773;32;20634;-61
2021/11/28 04:54:16;;;;;;;436.90;411.00;;;4.00;99.90;;;;;;4377453;32;20211;-61
2021/11/28 04:56:44;;;;;;;424.50;399.47;;;3.80;99.90;;;;;;4375014;32;20208;-62
2021/11/28 04:59:11;;;;;;;411.03;388.10;;;3.80;99.90;;;;;;4372592;32;20288;-61
2021/11/28 05:01:38;;;;;;;401.37;379.23;;;3.60;99.90;;;;;;4372489;32;20180;-61
2021/11/28 05:04:05;;;;;;;410.43;387.37;;;3.50;99.90;;;;;;4370689;32;20202;-62
2021/11/28 05:06:32;;;;;;;411.10;387.33;;;3.40;99.90;;;;;;4374414;32;20156;-61
2021/11/28 05:08:59;;;;;;;427.17;403.43;;;3.30;99.90;;;;;;4376126;32;20179;-62
2021/11/28 05:11:26;;;;;;;421.53;398.10;;;3.30;99.90;;;;;;4377181;32;20180;-62
2021/11/28 05:13:54;;;;;;;391.93;369.37;;;3.30;99.90;;;;;;4374621;32;20192;-62
2021/11/28 05:16:23;;;;;;;409.33;385.80;;;3.40;99.90;;;;;;4372552;32;20161;-61
2021/11/28 05:18:50;;;;;;;450.43;424.60;;;3.40;99.90;;;;;;4366831;32;20175;-61
2021/11/28 05:21:18;;;;;;;434.43;408.20;;;3.50;99.90;;;;;;4375590;32;20151;-61
2021/11/28 05:23:45;;;;;;;427.20;401.83;;;3.50;99.90;;;;;;4375978;32;20158;-62
2021/11/28 05:26:12;;;;;;;431.90;406.83;;;3.60;99.90;;;;;;4375874;32;20579;-61
2021/11/28 05:28:39;;;;;;;420.30;396.23;;;3.50;99.90;;;;;;4371159;32;20219;-62
2021/11/28 05:31:07;;;;;;;435.90;411.10;;;3.40;99.90;;;;;;4372117;32;20504;-62
2021/11/28 05:33:34;;;;;;;422.23;398.30;;;3.40;99.90;;;;;;4376205;32;20562;-62
2021/11/28 05:36:01;;;;;;;423.70;399.03;;;3.40;99.90;;;;;;4376796;32;20166;-61
2021/11/28 05:38:28;;;;;;;439.77;414.53;;;3.50;99.90;;;;;;4375025;32;20225;-62
2021/11/28 05:40:57;;;;;;;438.70;413.87;;;3.60;99.90;;;;;;4375575;32;20239;-62
2021/11/28 05:43:25;;;;;;;431.10;406.87;;;3.60;99.90;;;;;;4373791;32;20216;-62
2021/11/28 05:45:53;;;;;;;420.70;396.47;;;3.70;99.90;;;;;;4374581;32;20226;-61
2021/11/28 05:48:21;;;;;;;434.33;408.80;;;3.70;99.90;;;;;;4375338;32;20187;-62
2021/11/28 05:50:49;;;;;;;438.47;413.03;;;3.80;99.90;;;;;;4375588;32;20192;-62
2021/11/28 05:53:16;;;;;;;426.67;401.60;;;3.90;99.90;;;;;;4377981;32;20186;-62
2021/11/28 05:55:43;;;;;;;434.53;408.87;;;3.80;99.90;;;;;;4378706;32;20507;-62
2021/11/28 05:58:10;;;;;;;446.53;420.27;;;3.80;99.90;;;;;;4373143;32;20239;-62
2021/11/28 06:00:38;;;;;;;432.20;407.97;;;3.80;99.90;;;;;;4378081;32;20189;-62
2021/11/28 06:03:05;;;;;;;423.80;398.27;;;3.80;99.90;;;;;;4378007;32;20186;-61
2021/11/28 06:05:33;;;;;;;438.37;413.03;;;3.90;99.90;;;;;;4376976;32;20221;-61
2021/11/28 06:08:00;;;;;;;432.27;406.83;;;3.90;99.90;;;;;;4360540;32;20153;-62
2021/11/28 06:10:27;;;;;;;430.20;404.77;;;3.90;99.90;;;;;;4373313;32;20190;-61
2021/11/28 06:12:54;;;;;;;429.07;402.37;;;3.90;99.90;;;;;;4377799;32;20660;-61
2021/11/28 06:15:21;;;;;;;422.93;398.03;;;3.90;99.90;;;;;;4377300;32;20607;-61
2021/11/28 06:17:48;;;;;;;440.90;416.00;;;3.90;99.90;;;;;;4360253;32;20183;-61
2021/11/28 06:20:15;;;;;;;460.10;433.00;;;4.00;99.90;;;;;;4367255;32;20156;-61
2021/11/28 06:22:43;;;;;;;459.60;433.17;;;3.90;99.90;;;;;;4378110;32;20172;-61
2021/11/28 06:25:13;;;;;;;464.97;438.27;;;4.00;99.90;;;;;;4377655;32;20183;-61
2021/11/28 06:27:40;;;;;;;429.03;403.83;;;4.00;99.90;;;;;;4376640;32;20179;-61
2021/11/28 06:30:09;;;;;;;433.40;407.47;;;4.00;99.90;;;;;;4377771;32;20160;-61
2021/11/28 06:32:36;;;;;;;432.57;407.20;;;3.90;99.90;;;;;;4375727;32;20212;-61
2021/11/28 06:35:03;;;;;;;424.07;400.03;;;3.90;99.90;;;;;;4377087;32;20187;-61
2021/11/28 06:37:30;;;;;;;434.20;409.77;;;3.80;99.90;;;;;;4375592;32;20255;-61
2021/11/28 06:39:58;;;;;;;431.23;405.70;;;3.80;99.90;;;;;;4374418;32;20171;-61
2021/11/28 06:42:25;;;;;;;417.93;394.17;;;3.70;99.90;;;;;;4378259;32;20172;-61
2021/11/28 06:44:52;;;;;;;416.00;392.53;;;3.60;99.90;;;;;;4376945;32;20587;-61
2021/11/28 06:47:19;;;;;;;412.73;389.40;;;3.50;99.90;;;;;;4376805;32;20472;-61
2021/11/28 06:49:46;;;;;;;407.53;384.27;;;3.50;99.90;;;;;;4377236;32;20179;-61
2021/11/28 06:52:13;;;;;;;424.77;400.47;;;3.50;99.90;;;;;;4376388;32;20148;-61
2021/11/28 06:54:40;;;;;;;429.03;404.43;;;3.50;99.90;;;;;;4379292;32;20572;-62
2021/11/28 06:57:08;;;;;;;427.87;404.57;;;3.60;99.90;;;;;;4372833;32;20235;-62
2021/11/28 06:59:36;;;;;;;433.60;409.40;;;3.60;99.90;;;;;;4378411;32;20225;-61
2021/11/28 07:02:04;;;;;;;452.30;426.40;;;3.60;99.90;;;;;;4376807;32;20161;-61
2021/11/28 07:04:31;;;;;;;430.50;405.90;;;3.70;99.90;;;;;;4378363;32;20570;-61
2021/11/28 07:06:57;;;;;;;446.27;419.97;;;3.70;99.90;;;;;;4376959;32;20193;-61
2021/11/28 07:09:24;;;;;;;433.67;408.67;;;3.80;99.90;;;;;;4377101;32;20524;-61
2021/11/28 07:11:51;;;;;;;421.47;397.33;;;3.90;99.90;;;;;;4375598;32;20221;-62
2021/11/28 07:14:20;;;;;;;425.03;400.77;;;3.90;99.90;;;;;;4378597;32;20631;-61
2021/11/28 07:16:46;;;;;;;435.07;409.83;;;3.90;99.90;;;;;;4377557;32;20189;-63
2021/11/28 07:19:13;;;;;;;444.03;417.50;;;3.90;99.90;;;;;;4376608;32;20606;-61
2021/11/28 07:21:40;;;;;;;419.33;395.37;;;3.90;99.90;;;;;;4376844;32;20580;-61
2021/11/28 07:24:07;;;;;;;455.40;429.13;;;4.00;99.90;;;;;;4376857;32;20156;-61
2021/11/28 07:26:34;;;;;;;455.30;428.77;;;4.00;99.90;;;;;;4372458;32;20179;-61
2021/11/28 07:29:01;;;;;;;454.40;428.40;;;4.00;99.90;;;;;;4376150;32;20220;-61
2021/11/28 07:31:29;;;;;;;452.00;425.23;;;4.10;99.90;;;;;;4363621;32;20197;-61
2021/11/28 07:33:56;;;;;;;454.13;428.17;;;4.20;99.90;;;;;;4375417;32;20195;-61
2021/11/28 07:36:23;;;;;;;426.97;402.30;;;4.20;99.90;;;;;;4376528;32;20208;-61
2021/11/28 07:38:53;;;;;;;430.77;406.87;;;4.10;99.90;;;;;;4377524;32;20187;-61
2021/11/28 07:41:19;;;;;;;426.37;402.70;;;4.00;99.90;;;;;;4378102;32;20213;-61
2021/11/28 07:43:46;;;;;;;433.03;408.97;;;3.90;99.90;;;;;;4377374;32;20213;-62
2021/11/28 07:46:13;;;;;;;428.03;404.33;;;3.90;99.90;;;;;;4374599;32;20165;-62
2021/11/28 07:48:41;;;;;;;431.43;407.80;;;3.80;99.90;;;;;;4380045;32;20181;-62
2021/11/28 07:51:09;;;;;;;432.57;408.77;;;3.80;99.90;;;;;;4376918;32;20145;-62
2021/11/28 07:53:38;;;;;;;440.23;416.10;;;3.80;99.90;;;;;;4375841;32;20639;-62
2021/11/28 07:56:05;;;;;;;423.23;400.27;;;3.80;99.90;;;;;;4374171;32;20642;-62
2021/11/28 07:58:32;;;;;;;428.47;404.40;;;3.90;99.90;;;;;;4378258;32;20189;-62
2021/11/28 08:00:59;;;;;;;436.73;412.23;;;4.00;99.90;;;;;;4376582;32;20160;-62
2021/11/28 08:03:26;;;;;;;437.40;411.37;;;4.10;99.90;;;;;;4362353;32;20176;-62
2021/11/28 08:05:58;;;;;;;427.03;401.80;;;4.10;99.90;;;;;;4373914;32;20212;-61
2021/11/28 08:08:27;;;;;;;437.67;412.37;;;4.10;99.90;;;;;;4374841;32;20258;-61
2021/11/28 08:10:54;;;;;;;451.63;426.63;;;4.30;99.90;;;;;;4375852;32;20237;-61
2021/11/28 08:13:22;;;;;;;455.87;430.33;;;4.40;99.90;;;;;;4374900;32;20175;-62
2021/11/28 08:15:49;;;;;;;453.87;428.93;;;4.50;99.90;;;;;;4374248;32;20156;-61
2021/11/28 08:18:16;;;;;;;474.90;447.00;;;4.70;99.90;;;;;;4377090;32;20604;-60
2021/11/28 08:20:43;;;;;;;441.50;415.73;;;4.90;99.90;;;;;;4371765;32;20181;-61
2021/11/28 08:23:11;;;;;;;465.30;438.57;;;5.30;99.90;;;;;;4376144;32;20173;-61
2021/11/28 08:25:38;;;;;;;445.87;420.03;;;5.50;99.90;;;;;;4375208;32;20224;-62
2021/11/28 08:28:08;;;;;;;450.10;423.90;;;5.70;99.90;;;;;;4376563;32;20213;-61
2021/11/28 08:30:35;;;;;;;457.27;430.53;;;5.90;99.90;;;;;;4371043;32;20192;-62
2021/11/28 08:33:03;;;;;;;443.00;417.67;;;6.00;99.90;;;;;;4377113;32;20165;-61
2021/11/28 08:35:30;;;;;;;463.77;438.00;;;6.00;99.90;;;;;;4375656;32;20191;-61
2021/11/28 08:37:57;;;;;;;421.80;398.27;;;6.00;99.90;;;;;;4374750;32;20190;-61
2021/11/28 08:40:26;;;;;;;425.87;401.90;;;6.00;99.90;;;;;;4374825;32;20164;-61
2021/11/28 08:42:53;;;;;;;442.63;418.27;;;6.00;99.90;;;;;;4376495;32;20182;-61
2021/11/28 08:45:20;;;;;;;430.03;407.17;;;6.10;99.90;;;;;;4375670;32;20176;-62
2021/11/28 08:47:51;;;;;;;416.60;394.53;;;6.20;99.90;;;;;;4376208;32;20159;-61
2021/11/28 08:50:19;;;;;;;410.53;388.70;;;6.20;99.90;;;;;;4375065;32;20161;-61
2021/11/28 08:52:47;;;;;;;418.70;396.43;;;6.20;99.90;;;;;;4374034;32;20185;-61
2021/11/28 08:55:15;;;;;;;400.37;379.80;;;6.30;99.90;;;;;;4376085;32;20161;-62
2021/11/28 08:57:44;;;;;;;407.57;386.63;;;6.30;99.90;;;;;;4374902;32;20176;-62
2021/11/28 09:00:13;;;;;;;402.70;381.33;;;6.30;99.90;;;;;;4374431;32;20160;-62
2021/11/28 09:02:40;;;;;;;406.97;385.83;;;6.40;99.90;;;;;;4372975;32;20153;-62
2021/11/28 09:05:08;;;;;;;411.60;390.13;;;6.50;99.90;;;;;;4376203;32;20175;-62
2021/11/28 09:07:35;;;;;;;409.00;387.00;;;6.50;99.90;;;;;;4374717;32;20207;-62
2021/11/28 09:10:02;;;;;;;417.40;394.87;;;6.50;99.90;;;;;;4374880;32;20194;-61
2021/11/28 09:12:29;;;;;;;427.80;405.43;;;6.20;99.90;;;;;;4373864;32;20200;-61
2021/11/28 09:14:57;;;;;;;414.93;393.63;;;6.30;99.90;;;;;;4374733;32;20617;-62
2021/11/28 09:17:24;;;;;;;412.97;391.53;;;6.20;99.90;;;;;;4374920;32;20219;-62
2021/11/28 09:19:56;;;;;;;414.10;392.90;;;6.20;99.90;;;;;;4358151;32;20156;-62
2021/11/28 09:22:35;;;;;;;420.17;398.93;;;6.20;99.90;;;;;;4368669;32;20185;-62
2021/11/28 09:25:01;;;;;;;413.10;391.87;;;6.20;99.90;;;;;;4368097;32;20152;-62
2021/11/28 09:27:29;;;;;;;417.30;396.07;;;6.10;99.90;;;;;;4371717;32;20492;-62
2021/11/28 09:29:57;;;;;;;407.33;386.90;;;6.10;99.90;;;;;;4374240;32;20195;-61
2021/11/28 09:32:24;;;;;;;427.03;405.70;;;5.90;99.90;;;;;;4374134;32;20223;-61
2021/11/28 09:34:54;;;;;;;408.83;387.93;;;5.60;99.90;;;;;;4374680;32;20160;-61
2021/11/28 09:37:21;;;;;;;429.07;407.27;;;5.10;99.90;;;;;;4366792;32;20211;-61
2021/11/28 09:40:07;;;;;;;417.20;395.83;;;4.90;99.90;;;;;;4372357;32;20194;-62
2021/11/28 09:42:40;;;;;;;408.50;388.33;;;4.90;99.90;;;;;;4369159;32;20578;-63
2021/11/28 09:45:11;;;;;;;410.97;390.03;;;5.00;99.90;;;;;;4372205;32;20160;-62
2021/11/28 09:47:38;;;;;;;407.80;387.33;;;4.90;99.90;;;;;;4371660;32;20182;-62
2021/11/28 09:50:08;;;;;;;426.63;404.70;;;5.10;99.90;;;;;;4373893;32;20215;-62
2021/11/28 09:52:36;;;;;;;431.90;409.50;;;5.20;99.90;;;;;;4371891;32;20192;-62
2021/11/28 09:55:06;;;;;;;425.83;404.40;;;5.40;99.90;;;;;;4371260;32;20235;-62
2021/11/28 09:57:34;;;;;;;428.20;406.73;;;5.20;99.90;;;;;;4374804;32;20205;-61
2021/11/28 10:00:01;;;;;;;425.97;404.33;;;5.20;99.90;;;;;;4372222;32;20501;-61
2021/11/28 10:02:31;;;;;;;430.13;408.73;;;5.00;99.90;;;;;;4367824;32;20172;-62
2021/11/28 10:05:00;;;;;;;432.73;411.93;;;5.00;99.90;;;;;;4366533;32;20186;-62
2021/11/28 10:07:27;;;;;;;429.73;409.03;;;5.00;99.90;;;;;;4370320;32;20160;-62
2021/11/28 10:09:54;;;;;;;436.20;414.77;;;5.20;99.90;;;;;;4366597;32;20183;-62
2021/11/28 10:12:23;;;;;;;444.17;423.63;;;5.20;99.90;;;;;;4367638;32;20195;-63
2021/11/28 10:14:53;;;;;;;433.37;413.43;;;5.20;99.90;;;;;;4373661;32;20172;-62
2021/11/28 10:17:23;;;;;;;405.27;387.40;;;5.20;99.90;;;;;;4370159;32;20215;-61
2021/11/28 10:19:52;;;;;;;418.60;399.97;;;5.00;99.90;;;;;;4369635;32;20157;-61
2021/11/28 10:22:19;;;;;;;417.87;399.57;;;4.90;99.90;;;;;;4366207;32;20201;-61
2021/11/28 10:25:00;;;;;;;433.73;414.70;;;4.90;99.90;;;;;;4374780;32;20171;-62
2021/11/28 10:27:40;;;;;;;427.60;408.70;;;4.90;99.90;;;;;;4374485;32;20202;-62
2021/11/28 10:30:09;;;;;;;414.70;396.60;;;4.80;99.90;;;;;;4368900;32;20160;-61
2021/11/28 10:32:44;;;;;;;419.00;401.10;;;4.80;99.90;;;;;;4371279;32;20218;-63
2021/11/28 10:35:14;;;;;;;413.20;395.67;;;4.80;99.90;;;;;;4375011;32;20580;-61
2021/11/28 10:37:43;;;;;;;404.13;387.27;;;4.80;99.90;;;;;;4374002;32;20156;-61
2021/11/28 10:40:11;;;;;;;398.17;381.67;;;4.90;99.90;;;;;;4371075;32;20251;-61
2021/11/28 10:42:39;;;;;;;397.93;381.27;;;4.80;99.90;;;;;;4372121;32;20156;-62
2021/11/28 10:45:10;;;;;;;403.67;386.63;;;4.90;99.90;;;;;;4362880;32;20291;-61
2021/11/28 10:47:42;;;;;;;421.33;403.67;;;4.90;99.90;;;;;;4366668;32;20189;-60
2021/11/28 10:50:17;;;;;;;430.30;412.07;;;5.00;99.90;;;;;;4364076;32;20169;-60
2021/11/28 10:52:47;;;;;;;416.33;398.93;;;5.10;99.90;;;;;;4374608;32;20154;-62
2021/11/28 10:55:17;;;;;;;429.03;411.17;;;5.30;99.90;;;;;;4376682;32;20231;-63
2021/11/28 10:57:47;;;;;;;408.33;391.17;;;5.30;99.90;;;;;;4368624;32;20164;-60
2021/11/28 11:00:15;;;;;;;420.63;403.10;;;5.30;99.90;;;;;;4374317;32;20192;-61
2021/11/28 11:02:42;;;;;;;416.23;398.70;;;5.10;99.90;;;;;;4373781;32;20178;-60
2021/11/28 11:05:12;;;;;;;421.83;403.97;;;5.00;99.90;;;;;;4374751;32;20161;-61
2021/11/28 11:07:48;;;;;;;397.17;380.20;;;5.00;99.90;;;;;;4373086;32;20213;-61
2021/11/28 11:10:24;;;;;;;410.30;393.03;;;5.10;99.90;;;;;;4371534;32;20203;-61
2021/11/28 11:12:52;;;;;;;443.87;425.20;;;5.20;99.90;;;;;;4374376;32;20157;-61
2021/11/28 11:15:36;;;;;;;411.80;394.53;;;5.20;99.90;;;;;;4371053;32;20227;-60
2021/11/28 11:18:06;;;;;;;422.60;404.60;;;5.10;99.90;;;;;;4369886;32;20163;-61
2021/11/28 11:20:34;;;;;;;415.30;397.93;;;5.10;99.90;;;;;;4372941;32;20184;-61
2021/11/28 11:23:03;;;;;;;408.93;391.83;;;5.10;99.90;;;;;;4372322;32;20156;-61
2021/11/28 11:25:35;;;;;;;431.23;413.07;;;5.10;99.90;;;;;;4372409;32;20194;-61
2021/11/28 11:28:10;;;;;;;410.87;393.50;;;5.20;99.90;;;;;;4373493;32;20156;-61
2021/11/28 11:30:41;;;;;;;435.73;417.40;;;5.00;99.90;;;;;;4374628;32;20162;-60
2021/11/28 11:33:08;;;;;;;411.77;394.40;;;5.00;99.90;;;;;;4374899;32;20183;-61
2021/11/28 11:35:42;;;;;;;404.13;387.33;;;5.00;99.90;;;;;;4370612;32;20187;-60
2021/11/28 11:38:15;;;;;;;378.43;362.70;;;5.00;99.90;;;;;;4372701;32;20183;-61
2021/11/28 11:40:43;;;;;;;418.30;401.03;;;5.00;99.90;;;;;;4373499;32;20187;-62
2021/11/28 11:43:11;;;;;;;407.43;390.43;;;4.90;99.90;;;;;;4373122;32;20167;-60
2021/11/28 11:45:41;;;;;;;424.67;406.80;;;4.80;99.90;;;;;;4373910;32;20192;-61
2021/11/28 11:48:09;;;;;;;410.33;393.20;;;4.70;99.90;;;;;;4372283;32;20255;-61
2021/11/28 11:50:37;;;;;;;405.63;388.83;;;4.70;99.90;;;;;;4367568;32;20927;-61
2021/11/28 11:53:05;;;;;;;409.53;392.43;;;4.60;99.90;;;;;;4364800;32;20612;-61
2021/11/28 11:55:40;;;;;;;408.70;391.50;;;4.60;99.90;;;;;;4359041;32;20209;-62
2021/11/28 11:58:34;;;;;;;408.60;391.60;;;4.50;99.90;;;;;;4362803;32;20241;-61
2021/11/28 12:01:03;;;;;;;404.80;387.90;;;4.50;99.90;;;;;;4360558;32;20215;-61
2021/11/28 12:03:44;;;;;;;414.23;396.93;;;4.50;99.90;;;;;;4354189;32;20170;-61
2021/11/28 12:06:11;;;;;;;403.10;386.27;;;4.60;99.90;;;;;;4358337;32;20596;-61
2021/11/28 12:08:48;;;;;;;413.80;396.57;;;4.50;99.90;;;;;;4359051;32;20194;-62
2021/11/28 12:11:18;;;;;;;414.83;397.40;;;4.40;99.90;;;;;;4362266;32;20175;-63
2021/11/28 12:13:58;;;;;;;410.63;393.33;;;4.50;99.90;;;;;;4364872;32;20446;-60
2021/11/28 12:16:32;;;;;;;419.47;401.70;;;4.50;99.90;;;;;;4359066;32;20181;-62
2021/11/28 12:18:59;;;;;;;405.80;388.70;;;4.50;99.90;;;;;;4360692;32;20603;-61
2021/11/28 12:21:39;;;;;;;426.37;408.23;;;4.50;99.90;;;;;;4357409;32;20169;-62
2021/11/28 12:24:09;;;;;;;407.80;390.57;;;4.70;99.90;;;;;;4364269;32;20169;-60
2021/11/28 12:26:57;;;;;;;403.97;387.27;;;4.70;99.90;;;;;;4364954;32;20172;-61